地図

経路データ

SID SEASON NUMBER BASIN SUBBASIN NAME ISO_TIME NATURE LAT LON WMO_WIND WMO_PRES WMO_AGENCY TRACK_TYPE DIST2LAND LANDFALL IFLAG USA_AGENCY USA_ATCF_ID USA_LAT USA_LON USA_RECORD USA_STATUS USA_WIND USA_PRES USA_SSHS USA_R34_NE USA_R34_SE USA_R34_SW USA_R34_NW USA_R50_NE USA_R50_SE USA_R50_SW USA_R50_NW USA_R64_NE USA_R64_SE USA_R64_SW USA_R64_NW USA_POCI USA_ROCI USA_RMW USA_EYE TOKYO_LAT TOKYO_LON TOKYO_GRADE TOKYO_WIND TOKYO_PRES TOKYO_R50_DIR TOKYO_R50_LONG TOKYO_R50_SHORT TOKYO_R30_DIR TOKYO_R30_LONG TOKYO_R30_SHORT TOKYO_LAND CMA_LAT CMA_LON CMA_CAT CMA_WIND CMA_PRES HKO_LAT HKO_LON HKO_CAT HKO_WIND HKO_PRES NEWDELHI_LAT NEWDELHI_LON NEWDELHI_GRADE NEWDELHI_WIND NEWDELHI_PRES NEWDELHI_CI NEWDELHI_DP NEWDELHI_POCI REUNION_LAT REUNION_LON REUNION_TYPE REUNION_WIND REUNION_PRES REUNION_TNUM REUNION_CI REUNION_RMW REUNION_R34_NE REUNION_R34_SE REUNION_R34_SW REUNION_R34_NW REUNION_R50_NE REUNION_R50_SE REUNION_R50_SW REUNION_R50_NW REUNION_R64_NE REUNION_R64_SE REUNION_R64_SW REUNION_R64_NW BOM_LAT BOM_LON BOM_TYPE BOM_WIND BOM_PRES BOM_TNUM BOM_CI BOM_RMW BOM_R34_NE BOM_R34_SE BOM_R34_SW BOM_R34_NW BOM_R50_NE BOM_R50_SE BOM_R50_SW BOM_R50_NW BOM_R64_NE BOM_R64_SE BOM_R64_SW BOM_R64_NW BOM_ROCI BOM_POCI BOM_EYE BOM_POS_METHOD BOM_PRES_METHOD NADI_LAT NADI_LON NADI_CAT NADI_WIND NADI_PRES WELLINGTON_LAT WELLINGTON_LON WELLINGTON_WIND WELLINGTON_PRES DS824_LAT DS824_LON DS824_STAGE DS824_WIND DS824_PRES TD9636_LAT TD9636_LON TD9636_STAGE TD9636_WIND TD9636_PRES TD9635_LAT TD9635_LON TD9635_WIND TD9635_PRES TD9635_ROCI NEUMANN_LAT NEUMANN_LON NEUMANN_CLASS NEUMANN_WIND NEUMANN_PRES MLC_LAT MLC_LON MLC_CLASS MLC_WIND MLC_PRES USA_GUST BOM_GUST BOM_GUST_PER REUNION_GUST REUNION_GUST_PER USA_SEAHGT USA_SEARAD_NE USA_SEARAD_SE USA_SEARAD_SW USA_SEARAD_NW STORM_SPEED STORM_DIR
1966282N12132 1966 95 WP MM NOT_NAMED 1966-10-09 06:00:00 TS 11.5000 132.400 main 722 689 O________O____ jtwc_wp WP351966 11.5000 132.400 TD -1 11.5000 132.400 TC 7 270
1966282N12132 1966 95 WP MM NOT_NAMED 1966-10-09 09:00:00 TS 11.5001 132.053 main 689 646 P________P____ WP351966 11.5001 132.053 TD -1 11.5001 132.053 TC 7 270
1966282N12132 1966 95 WP MM NOT_NAMED 1966-10-09 12:00:00 TS 11.5000 131.700 main 646 613 O________O____ jtwc_wp WP351966 11.5000 131.700 TD -1 11.5000 131.700 TC 7 271
1966282N12132 1966 95 WP MM NOT_NAMED 1966-10-09 15:00:00 TS 11.5125 131.342 main 602 571 P________P____ WP351966 11.5125 131.342 TD -1 11.5125 131.342 TC 7 278
1966282N12132 1966 95 WP MM NOT_NAMED 1966-10-09 18:00:00 TS 11.6000 131.000 main 571 541 O________O____ jtwc_wp WP351966 11.6000 131.000 TD -1 11.6000 131.000 TC 7 295
1966282N12132 1966 95 WP MM NOT_NAMED 1966-10-09 21:00:00 TS 11.8125 130.678 main 541 513 P________P____ WP351966 11.8125 130.678 TD -1 11.8125 130.678 TC 8 310
1966282N12132 1966 95 WP MM NOT_NAMED 1966-10-10 00:00:00 TS 12.1000 130.400 main 516 501 O________O____ jtwc_wp WP351966 12.1000 130.400 TD -1 12.1000 130.400 TC 8 320
1966282N12132 1966 95 WP MM NOT_NAMED 1966-10-10 03:00:00 TS 12.3925 130.177 main 504 491 P________P____ WP351966 12.3925 130.177 TD -1 12.3925 130.177 TC 7 327
1966282N12132 1966 95 WP MM NOT_NAMED 1966-10-10 06:00:00 TS 12.7000 130.000 main 492 482 O________O____ jtwc_wp WP351966 12.7000 130.000 TD -1 12.7000 130.000 TC 7 332
1966282N12132 1966 95 WP MM NOT_NAMED 1966-10-10 09:00:00 TS 13.0000 129.842 main 475 469 P________P____ WP351966 13.0000 129.842 TD -1 13.0000 129.842 TC 7 334
1966282N12132 1966 95 WP MM NOT_NAMED 1966-10-10 12:00:00 TS 13.3000 129.700 main 472 464 O________O____ jtwc_wp WP351966 13.3000 129.700 TD -1 13.3000 129.700 TC 7 334
1966282N12132 1966 95 WP MM NOT_NAMED 1966-10-10 15:00:00 TS 13.5925 129.542 main 461 459 P________P____ WP351966 13.5925 129.542 TD -1 13.5925 129.542 TC 7 334
1966282N12132 1966 95 WP MM NOT_NAMED 1966-10-10 18:00:00 TS 13.9000 129.400 main 463 463 O________O____ jtwc_wp WP351966 13.9000 129.400 TD -1 13.9000 129.400 TC 7 340
1966282N12132 1966 95 WP MM NOT_NAMED 1966-10-10 21:00:00 TS 14.2500 129.292 main 468 468 P________P____ WP351966 14.2500 129.292 TD -1 14.2500 129.292 TC 7 345
1966282N12132 1966 95 WP MM NOT_NAMED 1966-10-11 00:00:00 TS 14.6000 129.200 main 482 482 O________O____ jtwc_wp WP351966 14.6000 129.200 TD -1 14.6000 129.200 TC 7 344
1966282N12132 1966 95 WP MM NOT_NAMED 1966-10-11 03:00:00 TS 14.9000 129.100 main 492 492 P________P____ WP351966 14.9000 129.100 TD -1 14.9000 129.100 TC 6 342
1966282N12132 1966 95 WP MM NOT_NAMED 1966-10-11 06:00:00 TS 15.2000 129.000 main 505 505 O________O____ jtwc_wp WP351966 15.2000 129.000 TD -1 15.2000 129.000 TC 7 342
1966282N12132 1966 95 WP MM NOT_NAMED 1966-10-11 09:00:00 TS 15.5425 128.893 main 516 514 P________P____ WP351966 15.5425 128.893 TD -1 15.5425 128.893 TC 7 345
1966282N12132 1966 95 WP MM NOT_NAMED 1966-10-11 12:00:00 TS 15.9000 128.800 main 523 523 O________O____ jtwc_wp WP351966 15.9000 128.800 TD -1 15.9000 128.800 TC 7 348
1966282N12132 1966 95 WP MM NOT_NAMED 1966-10-11 15:00:00 TS 16.2525 128.740 main 534 534 P________P____ WP351966 16.2525 128.740 TD -1 16.2525 128.740 TC 7 352
1966282N12132 1966 95 WP MM NOT_NAMED 1966-10-11 18:00:00 TS 16.6000 128.700 main 551 O________O____ jtwc_wp WP351966 16.6000 128.700 TD -1 16.6000 128.700 TC 7 354

デジタル台風データ・検索

IBTrACS Databaseについて

本データベースは、米国NOAAが公開する1842年以降の世界の熱帯低気圧のベストトラックデータアーカイブInternational Best Track Archive for Climate Stewardship (IBTrACS)を、ウェブで閲覧しやすい形式に変換したものです。

最終更新日:2021-12-08